Time;durP1;ratioP1;P1;durP2;ratioP2;P2;SDS_P1;SDS_P2;PMS_P1;PMS_P2;Temp;Humidity;BMP_temperature;BMP_pressure;BME280_temperature;BME280_humidity;BME280_pressure;Samples;Min_cycle;Max_cycle;Signal;HPM_P1;HPM_P2
2022/06/01 00:02:22;;;;;;;33.83;16.00;;;18.40;99.90;;;;;;5115692;28;20718;-91
2022/06/01 00:04:48;;;;;;;40.20;17.67;;;18.40;99.90;;;;;;5098118;28;20225;-90
2022/06/01 00:07:13;;;;;;;32.57;15.17;;;18.30;99.90;;;;;;5116297;28;20184;-89
2022/06/01 00:09:39;;;;;;;28.33;14.63;;;18.30;99.90;;;;;;5117461;28;20652;-90
2022/06/01 00:12:05;;;;;;;30.40;14.60;;;18.30;99.90;;;;;;5115420;28;20223;-91
2022/06/01 00:14:33;;;;;;;33.83;16.17;;;18.30;99.90;;;;;;5098229;28;20220;-90
2022/06/01 00:16:59;;;;;;;35.30;16.00;;;18.30;99.90;;;;;;5116658;28;20978;-91
2022/06/01 00:19:25;;;;;;;30.60;14.90;;;18.20;99.90;;;;;;5117512;28;20459;-91
2022/06/01 00:24:37;;;;;;;33.07;14.63;;;18.20;99.90;;;;;;5116741;28;20415;-90
2022/06/01 00:27:03;;;;;;;61.23;24.57;;;18.20;99.90;;;;;;5098925;28;20435;-90
2022/06/01 00:29:29;;;;;;;48.40;21.90;;;18.10;99.90;;;;;;5118116;28;20416;-90
2022/06/01 00:31:55;;;;;;;32.67;16.50;;;18.10;99.90;;;;;;5099346;28;20443;-90
2022/06/01 00:34:20;;;;;;;32.77;17.87;;;18.10;99.90;;;;;;5097952;28;20212;-90
2022/06/01 00:36:46;;;;;;;36.03;17.70;;;18.00;99.90;;;;;;5117576;28;20192;-91
2022/06/01 00:39:12;;;;;;;32.60;15.33;;;18.00;99.90;;;;;;5120264;28;20203;-89
2022/06/01 00:41:38;;;;;;;35.30;17.27;;;18.00;99.90;;;;;;5103525;28;20679;-91
2022/06/01 00:44:04;;;;;;;37.87;17.77;;;18.00;99.90;;;;;;5105655;28;20190;-89
2022/06/01 00:46:30;;;;;;;32.90;15.57;;;18.00;99.90;;;;;;5108082;28;20396;-91
2022/06/01 00:49:03;;;;;;;27.77;14.60;;;18.00;99.90;;;;;;5121950;28;20424;-91
2022/06/01 00:51:29;;;;;;;26.77;13.93;;;17.90;99.90;;;;;;5118456;28;20882;-90
2022/06/01 00:53:57;;;;;;;23.40;13.20;;;17.90;99.90;;;;;;5100428;28;20520;-90
2022/06/01 00:56:47;;;;;;;24.40;14.57;;;17.90;99.90;;;;;;5118490;28;20943;-90
2022/06/01 00:59:22;;;;;;;25.33;13.00;;;17.90;99.90;;;;;;5076693;28;20495;-90
2022/06/01 01:01:49;;;;;;;26.57;13.50;;;17.90;99.90;;;;;;5100116;28;20439;-90
2022/06/01 01:04:15;;;;;;;21.43;12.00;;;17.80;99.90;;;;;;5100309;28;20428;-90
2022/06/01 01:06:43;;;;;;;29.13;14.20;;;17.80;99.90;;;;;;5100405;28;20957;-90
2022/06/01 01:09:11;;;;;;;25.37;13.53;;;17.80;99.90;;;;;;5118680;28;20508;-90
2022/06/01 01:11:58;;;;;;;27.70;13.20;;;17.80;99.90;;;;;;5099998;28;20956;-90
2022/06/01 01:14:29;;;;;;;29.13;14.37;;;17.80;99.90;;;;;;5100026;28;20473;-90
2022/06/01 01:16:55;;;;;;;26.07;14.37;;;17.80;99.90;;;;;;5118229;28;20424;-91
2022/06/01 01:19:39;;;;;;;34.20;16.37;;;17.70;99.90;;;;;;5100684;28;20467;-91
2022/06/01 01:22:23;;;;;;;28.80;14.33;;;17.70;99.90;;;;;;5117933;28;20287;-91
2022/06/01 01:25:18;;;;;;;28.47;15.67;;;17.70;99.90;;;;;;5118336;28;20920;-91
2022/06/01 01:27:51;;;;;;;28.47;14.93;;;17.70;99.90;;;;;;5118011;28;20455;-91
2022/06/01 01:30:40;;;;;;;31.70;16.00;;;17.70;99.90;;;;;;5079610;28;20391;-91
2022/06/01 01:33:13;;;;;;;28.47;16.20;;;17.70;99.90;;;;;;5099376;28;20441;-91
2022/06/01 01:35:41;;;;;;;31.77;16.80;;;17.60;99.90;;;;;;5117609;28;20874;-92
2022/06/01 01:38:19;;;;;;;28.60;16.87;;;17.60;99.90;;;;;;5100007;28;20525;-91
2022/06/01 01:40:44;;;;;;;24.37;13.40;;;17.60;99.90;;;;;;5100765;28;20458;-90
2022/06/01 01:43:11;;;;;;;27.70;12.50;;;17.60;99.90;;;;;;5099738;28;20793;-90
2022/06/01 01:45:37;;;;;;;27.90;14.50;;;17.60;99.90;;;;;;5100076;28;20248;-90
2022/06/01 01:48:04;;;;;;;24.03;12.20;;;17.50;99.90;;;;;;5099799;28;20462;-91
2022/06/01 01:50:30;;;;;;;29.17;13.50;;;17.50;99.90;;;;;;5119236;28;20415;-89
2022/06/01 01:52:56;;;;;;;25.57;14.50;;;17.50;99.90;;;;;;5101771;28;20527;-90
2022/06/01 01:55:42;;;;;;;34.80;16.80;;;17.50;99.90;;;;;;5118248;28;20478;-90
2022/06/01 01:58:20;;;;;;;31.50;16.50;;;17.50;99.90;;;;;;5100700;28;20203;-91
2022/06/01 02:00:52;;;;;;;36.47;14.37;;;17.40;99.90;;;;;;5101330;28;20526;-89
2022/06/01 02:03:22;;;;;;;33.83;15.50;;;17.40;99.90;;;;;;5074996;28;20519;-90
2022/06/01 02:06:11;;;;;;;26.50;13.77;;;17.40;99.90;;;;;;5084141;28;20508;-90
2022/06/01 02:08:41;;;;;;;29.20;15.40;;;17.50;99.90;;;;;;5131318;28;20440;-91
2022/06/01 02:14:20;;;;;;;30.57;15.33;;;17.50;99.90;;;;;;5116788;28;20486;-91
2022/06/01 02:16:57;;;;;;;28.83;15.57;;;17.50;99.90;;;;;;5099225;28;20435;-91
2022/06/01 02:19:28;;;;;;;38.63;17.27;;;17.50;99.90;;;;;;5098629;28;20467;-90
2022/06/01 02:21:55;;;;;;;37.83;19.50;;;17.50;99.90;;;;;;5099161;28;20434;-91
2022/06/01 02:24:22;;;;;;;44.30;21.37;;;17.50;99.90;;;;;;5117488;28;20450;-90
2022/06/01 02:26:50;;;;;;;39.30;19.57;;;17.50;99.90;;;;;;5099575;28;20428;-91
2022/06/01 02:29:25;;;;;;;33.97;16.20;;;17.50;99.90;;;;;;5100538;28;20420;-90
2022/06/01 02:31:52;;;;;;;36.60;16.00;;;17.50;99.90;;;;;;5099141;28;20959;-91
2022/06/01 02:34:19;;;;;;;37.77;18.60;;;17.50;99.90;;;;;;5099191;28;20476;-91
2022/06/01 02:36:45;;;;;;;37.13;16.70;;;17.50;99.90;;;;;;5099298;28;20801;-91
2022/06/01 02:39:15;;;;;;;49.63;21.33;;;17.50;99.90;;;;;;5118118;28;20473;-91
2022/06/01 02:44:25;;;;;;;36.93;17.00;;;17.50;99.90;;;;;;5083863;28;20414;-91
2022/06/01 02:46:51;;;;;;;35.23;17.00;;;17.50;99.90;;;;;;5098772;28;20484;-91
2022/06/01 02:49:17;;;;;;;36.50;17.73;;;17.50;99.90;;;;;;5099718;28;20191;-88
2022/06/01 02:51:44;;;;;;;41.97;17.33;;;17.50;99.90;;;;;;5117308;28;20652;-88
2022/06/01 02:54:10;;;;;;;33.40;15.93;;;17.50;99.90;;;;;;5099097;28;20984;-91
2022/06/01 02:56:36;;;;;;;32.47;16.20;;;17.50;99.90;;;;;;5117357;28;20452;-90
2022/06/01 02:59:04;;;;;;;33.50;18.73;;;17.40;99.90;;;;;;5100254;28;20444;-90
2022/06/01 03:01:31;;;;;;;33.83;18.13;;;17.40;99.90;;;;;;5098516;28;20489;-91
2022/06/01 03:03:57;;;;;;;37.20;17.43;;;17.40;99.90;;;;;;5116955;28;20427;-90
2022/06/01 03:06:23;;;;;;;37.23;17.40;;;17.40;99.90;;;;;;5098648;28;20519;-91
2022/06/01 03:08:49;;;;;;;36.27;14.93;;;17.50;99.90;;;;;;5117578;28;20427;-92
2022/06/01 03:11:15;;;;;;;34.17;17.83;;;17.50;99.90;;;;;;5099428;28;20420;-91
2022/06/01 03:13:41;;;;;;;36.93;18.30;;;17.50;99.90;;;;;;5117197;28;20672;-90
2022/06/01 03:16:07;;;;;;;32.23;17.60;;;17.50;99.90;;;;;;5099216;28;20553;-91
2022/06/01 03:18:33;;;;;;;35.90;17.03;;;17.50;99.90;;;;;;5098905;28;20476;-90
2022/06/01 03:20:59;;;;;;;39.90;17.10;;;17.60;99.90;;;;;;5118274;28;20649;-88
2022/06/01 03:23:25;;;;;;;41.33;18.10;;;17.60;99.90;;;;;;5117330;28;20440;-91
2022/06/01 03:25:52;;;;;;;31.67;16.33;;;17.60;99.90;;;;;;5098639;28;20420;-89
2022/06/01 03:28:18;;;;;;;31.67;15.70;;;17.70;99.90;;;;;;5099551;28;20519;-91
2022/06/01 03:30:44;;;;;;;37.27;17.37;;;17.70;99.90;;;;;;5100058;28;20573;-90
2022/06/01 03:33:13;;;;;;;42.63;16.60;;;17.80;99.90;;;;;;5119042;28;20424;-91
2022/06/01 03:35:40;;;;;;;42.97;19.20;;;17.80;99.90;;;;;;5118742;28;20503;-90
2022/06/01 03:38:07;;;;;;;44.27;18.37;;;17.80;99.90;;;;;;5102139;28;20432;-92
2022/06/01 03:40:34;;;;;;;36.50;19.23;;;17.80;99.90;;;;;;5097323;28;20989;-90
2022/06/01 03:43:01;;;;;;;40.97;20.00;;;17.90;99.90;;;;;;5097053;28;20436;-91
2022/06/01 03:48:14;;;;;;;36.57;18.60;;;17.90;99.90;;;;;;5116651;28;20435;-90
2022/06/01 03:50:41;;;;;;;37.13;19.10;;;18.00;99.90;;;;;;5098054;28;20416;-91
2022/06/01 03:53:07;;;;;;;35.47;19.20;;;18.00;99.90;;;;;;5097339;28;20450;-91
2022/06/01 03:55:34;;;;;;;71.47;35.00;;;18.00;99.90;;;;;;5115584;28;20456;-90
2022/06/01 03:58:00;;;;;;;48.20;25.90;;;18.10;99.90;;;;;;5097023;28;20481;-91
2022/06/01 04:00:28;;;;;;;50.00;22.87;;;18.00;99.90;;;;;;5116074;28;20408;-91
2022/06/01 04:02:54;;;;;;;43.20;21.10;;;18.10;99.90;;;;;;5097695;28;20440;-92
2022/06/01 04:05:22;;;;;;;40.43;19.80;;;18.10;99.90;;;;;;5099300;28;20420;-93
2022/06/01 04:07:48;;;;;;;34.93;16.40;;;18.10;99.90;;;;;;5100085;28;20810;-91
2022/06/01 04:10:14;;;;;;;39.70;20.93;;;18.20;99.90;;;;;;5118065;28;20507;-91
2022/06/01 04:12:40;;;;;;;40.87;19.50;;;18.10;99.90;;;;;;5119618;28;20500;-91
2022/06/01 04:15:08;;;;;;;46.00;20.60;;;18.10;99.90;;;;;;5122766;28;20488;-89
2022/06/01 04:17:34;;;;;;;46.47;20.30;;;18.20;99.90;;;;;;5099685;28;20282;-93
2022/06/01 04:20:00;;;;;;;39.47;20.70;;;18.20;99.90;;;;;;5082657;28;20422;-90
2022/06/01 04:22:26;;;;;;;43.30;21.37;;;18.20;99.90;;;;;;5080947;28;20962;-93
2022/06/01 04:24:52;;;;;;;39.83;21.07;;;18.20;99.90;;;;;;5061975;28;20555;-91
2022/06/01 04:27:17;;;;;;;38.27;19.97;;;18.20;99.90;;;;;;5016507;28;20283;-92
2022/06/01 04:29:43;;;;;;;324.17;130.63;;;18.20;99.90;;;;;;5097815;28;20187;-90
2022/06/01 04:32:19;;;;;;;92.33;47.13;;;18.30;99.90;;;;;;5085421;28;20230;-93
2022/06/01 04:34:44;;;;;;;56.57;27.27;;;18.30;99.90;;;;;;5037088;28;20666;-91
2022/06/01 04:37:10;;;;;;;43.00;22.00;;;18.30;99.90;;;;;;5016207;28;20484;-93
2022/06/01 04:39:36;;;;;;;50.53;28.07;;;18.30;99.90;;;;;;5015917;28;20614;-91
2022/06/01 04:42:02;;;;;;;45.53;22.50;;;18.30;99.90;;;;;;5084739;28;20205;-92
2022/06/01 04:44:27;;;;;;;41.57;21.30;;;18.40;99.90;;;;;;5084217;28;20181;-88
2022/06/01 04:46:53;;;;;;;39.57;22.30;;;18.40;99.90;;;;;;5085640;28;20200;-91
2022/06/01 04:49:19;;;;;;;38.40;22.20;;;18.40;99.90;;;;;;5085766;28;20195;-92
2022/06/01 04:51:45;;;;;;;41.40;22.00;;;18.40;99.90;;;;;;5085470;28;20938;-92
2022/06/01 04:54:10;;;;;;;40.10;21.87;;;18.50;99.90;;;;;;5089083;28;20214;-90
2022/06/01 04:56:36;;;;;;;44.57;21.10;;;18.50;99.90;;;;;;5084117;28;20213;-91
2022/06/01 04:59:02;;;;;;;41.93;20.33;;;18.50;99.90;;;;;;5082843;28;20183;-88
2022/06/01 05:01:28;;;;;;;50.33;23.50;;;18.50;99.90;;;;;;5014799;28;20175;-91
2022/06/01 05:03:53;;;;;;;39.13;20.03;;;18.60;99.90;;;;;;5082527;28;20645;-94
2022/06/01 05:06:19;;;;;;;42.33;21.60;;;18.60;99.90;;;;;;5089014;28;20177;-94
2022/06/01 05:08:45;;;;;;;35.83;19.90;;;18.70;99.90;;;;;;5091894;28;20654;-92
2022/06/01 05:11:11;;;;;;;70.70;34.53;;;18.70;99.90;;;;;;5028275;28;20179;-94
2022/06/01 05:13:36;;;;;;;201.60;94.60;;;18.70;99.90;;;;;;5083133;28;20211;-92
2022/06/01 05:16:02;;;;;;;86.03;42.63;;;18.70;99.90;;;;;;5083358;28;20231;-94
2022/06/01 05:18:28;;;;;;;49.73;26.03;;;18.80;99.90;;;;;;5082112;28;20561;-94
2022/06/01 05:20:54;;;;;;;49.77;26.37;;;18.80;99.90;;;;;;5014901;28;20453;-90
2022/06/01 05:23:21;;;;;;;45.37;21.87;;;18.80;99.90;;;;;;5080942;28;20250;-90
2022/06/01 05:25:49;;;;;;;41.97;21.27;;;18.80;99.90;;;;;;5081299;28;20462;-92
2022/06/01 05:28:20;;;;;;;42.43;22.73;;;18.80;99.90;;;;;;5014244;28;20787;-92
2022/06/01 05:30:46;;;;;;;36.63;21.47;;;18.80;99.90;;;;;;5082245;28;20519;-91
2022/06/01 05:33:12;;;;;;;42.40;22.50;;;18.90;99.90;;;;;;5015540;28;20450;-92
2022/06/01 05:35:38;;;;;;;39.60;21.40;;;18.80;99.90;;;;;;5015624;28;20252;-90
2022/06/01 05:38:04;;;;;;;66.03;35.70;;;18.80;99.90;;;;;;5082812;28;20970;-91
2022/06/01 05:40:30;;;;;;;45.47;23.80;;;18.80;99.90;;;;;;5013685;28;20229;-91
2022/06/01 05:42:59;;;;;;;46.90;22.87;;;18.80;99.90;;;;;;5015132;28;20197;-91
2022/06/01 05:45:26;;;;;;;33.97;20.60;;;18.90;99.90;;;;;;5018181;28;20500;-93
2022/06/01 05:47:52;;;;;;;38.60;21.80;;;18.90;99.90;;;;;;5020481;28;20447;-91
2022/06/01 05:50:18;;;;;;;39.40;23.47;;;18.90;99.90;;;;;;5083217;28;20449;-91
2022/06/01 05:52:44;;;;;;;38.67;21.80;;;18.90;99.90;;;;;;5082122;28;20227;-91
2022/06/01 05:55:12;;;;;;;31.87;20.27;;;19.00;99.90;;;;;;5019496;28;20825;-93
2022/06/01 05:57:38;;;;;;;36.40;20.30;;;19.00;99.90;;;;;;5021141;28;20480;-91
2022/06/01 06:00:10;;;;;;;33.83;21.03;;;19.00;99.90;;;;;;5090076;28;20449;-93
2022/06/01 06:02:37;;;;;;;43.53;21.30;;;19.00;99.90;;;;;;5079402;28;20918;-93
2022/06/01 06:05:03;;;;;;;34.30;20.67;;;19.10;99.90;;;;;;5079700;28;20440;-91
2022/06/01 06:07:29;;;;;;;31.47;19.07;;;19.10;99.90;;;;;;5079085;28;20990;-91
2022/06/01 06:09:55;;;;;;;41.50;21.50;;;19.10;99.90;;;;;;5079368;28;20429;-92
2022/06/01 06:12:21;;;;;;;39.50;21.70;;;19.20;99.90;;;;;;5011913;28;20203;-94
2022/06/01 06:14:48;;;;;;;35.83;20.90;;;19.20;99.90;;;;;;5011875;28;20215;-91
2022/06/01 06:17:14;;;;;;;36.17;20.37;;;19.20;99.90;;;;;;5017855;27;20197;-92
2022/06/01 06:19:40;;;;;;;35.60;21.73;;;19.20;99.90;;;;;;5108903;27;20860;-93
2022/06/01 06:22:06;;;;;;;32.93;21.13;;;19.20;99.90;;;;;;5114484;27;20443;-91
2022/06/01 06:24:33;;;;;;;38.67;22.70;;;19.20;99.90;;;;;;5112360;28;20197;-91
2022/06/01 06:26:59;;;;;;;41.57;22.30;;;19.30;99.90;;;;;;5122905;27;20454;-93
2022/06/01 06:29:24;;;;;;;40.87;22.40;;;19.30;99.90;;;;;;5112063;27;20938;-91
2022/06/01 06:31:50;;;;;;;36.67;19.60;;;19.40;99.90;;;;;;5129096;27;20425;-91
2022/06/01 06:34:17;;;;;;;39.30;21.33;;;19.40;99.90;;;;;;5129601;27;20222;-93
2022/06/01 06:36:44;;;;;;;29.37;18.33;;;19.40;99.90;;;;;;5128467;27;20285;-92
2022/06/01 06:39:10;;;;;;;31.23;18.77;;;19.40;99.90;;;;;;5122555;27;20430;-92
2022/06/01 06:41:37;;;;;;;33.60;19.20;;;19.40;99.90;;;;;;5098612;27;20435;-94
2022/06/01 06:44:03;;;;;;;39.50;20.97;;;19.50;99.90;;;;;;5124994;27;20437;-94
2022/06/01 06:46:29;;;;;;;34.17;21.83;;;19.50;99.90;;;;;;5132697;27;20410;-91
2022/06/01 06:48:56;;;;;;;40.17;23.30;;;19.50;99.90;;;;;;5104697;27;20492;-93
2022/06/01 06:51:23;;;;;;;38.80;22.40;;;19.60;99.90;;;;;;5118218;27;20777;-94
2022/06/01 06:53:49;;;;;;;43.23;21.67;;;19.70;99.90;;;;;;5114022;27;20458;-91
2022/06/01 06:56:18;;;;;;;39.37;20.93;;;19.80;99.90;;;;;;5099941;28;20440;-93
2022/06/01 06:58:44;;;;;;;38.43;21.33;;;19.80;99.90;;;;;;5112376;28;20171;-94
2022/06/01 07:01:09;;;;;;;35.37;19.67;;;19.80;99.90;;;;;;5120386;27;20427;-92
2022/06/01 07:03:35;;;;;;;37.80;20.00;;;19.90;99.90;;;;;;5093695;28;20216;-92
2022/06/01 07:06:12;;;;;;;37.50;22.60;;;19.90;99.90;;;;;;5097273;28;20185;-92
2022/06/01 07:08:43;;;;;;;37.23;20.73;;;20.00;99.90;;;;;;5096740;28;20190;-94
2022/06/01 07:11:13;;;;;;;33.70;20.83;;;20.00;99.90;;;;;;5119670;27;20445;-91
2022/06/01 07:13:40;;;;;;;37.00;21.47;;;20.10;99.90;;;;;;5116076;27;20461;-94
2022/06/01 07:16:12;;;;;;;39.80;23.13;;;20.10;99.90;;;;;;5112556;27;20444;-91
2022/06/01 07:18:41;;;;;;;42.10;23.27;;;20.10;99.90;;;;;;5132211;27;20567;-94
2022/06/01 07:21:07;;;;;;;31.73;19.77;;;20.20;99.90;;;;;;5115326;27;20470;-91
2022/06/01 07:23:35;;;;;;;42.27;21.00;;;20.20;99.90;;;;;;5132258;27;20457;-91
2022/06/01 07:26:02;;;;;;;35.20;21.23;;;20.30;99.90;;;;;;5116393;27;20478;-91
2022/06/01 07:28:28;;;;;;;45.23;22.37;;;20.30;99.90;;;;;;5135065;27;20462;-92
2022/06/01 07:30:56;;;;;;;42.57;21.60;;;20.30;99.90;;;;;;5119384;28;20442;-93
2022/06/01 07:33:31;;;;;;;40.70;22.60;;;20.30;99.90;;;;;;5112776;27;20209;-92
2022/06/01 07:35:59;;;;;;;45.20;23.87;;;20.30;99.90;;;;;;5131555;27;20435;-92
2022/06/01 07:43:58;;;;;;;34.43;19.80;;;20.50;99.90;;;;;;5136788;27;20449;-92
2022/06/01 07:46:24;;;;;;;44.27;22.80;;;20.50;99.90;;;;;;5142570;27;20422;-94
2022/06/01 07:48:52;;;;;;;37.40;20.80;;;20.60;99.90;;;;;;5101419;28;20180;-94
2022/06/01 07:51:18;;;;;;;35.90;21.03;;;20.70;99.90;;;;;;5132707;27;20423;-92
2022/06/01 07:53:44;;;;;;;33.73;19.77;;;20.80;99.90;;;;;;5136995;27;20522;-92
2022/06/01 07:56:10;;;;;;;37.93;20.40;;;20.80;99.90;;;;;;5136341;27;20839;-92
2022/06/01 07:58:36;;;;;;;39.63;20.30;;;20.90;99.90;;;;;;5118966;28;20282;-91
2022/06/01 08:01:03;;;;;;;31.63;20.70;;;21.00;99.90;;;;;;5118775;28;20434;-93
2022/06/01 08:03:29;;;;;;;33.33;20.20;;;21.00;99.90;;;;;;5117585;28;20443;-93
2022/06/01 08:05:56;;;;;;;39.57;22.60;;;20.90;99.90;;;;;;5122761;28;20503;-92
2022/06/01 08:08:22;;;;;;;34.67;19.43;;;21.00;99.90;;;;;;5111890;28;20214;-92
2022/06/01 08:10:48;;;;;;;31.17;19.03;;;21.10;99.90;;;;;;5108489;28;20419;-93
2022/06/01 08:13:15;;;;;;;33.47;20.83;;;21.20;99.90;;;;;;5123663;28;20451;-94
2022/06/01 08:15:47;;;;;;;34.27;19.37;;;21.20;99.90;;;;;;5110450;28;20306;-95
2022/06/01 08:18:19;;;;;;;33.70;19.50;;;21.30;99.90;;;;;;5129707;28;20570;-92
2022/06/01 08:20:45;;;;;;;34.73;20.83;;;21.40;99.90;;;;;;5105381;28;20951;-92
2022/06/01 08:23:12;;;;;;;32.57;19.50;;;21.40;99.90;;;;;;5133263;28;20457;-92
2022/06/01 08:25:38;;;;;;;33.10;18.73;;;21.40;99.90;;;;;;5131290;28;20426;-93
2022/06/01 08:28:05;;;;;;;28.07;17.13;;;21.50;99.90;;;;;;5109611;28;20455;-93
2022/06/01 08:30:33;;;;;;;29.97;18.80;;;21.50;99.90;;;;;;5128261;28;20434;-91
2022/06/01 08:33:00;;;;;;;31.00;17.80;;;21.50;99.90;;;;;;5130979;28;20483;-92
2022/06/01 08:35:32;;;;;;;32.90;17.37;;;21.60;99.90;;;;;;5118741;28;20475;-94
2022/06/01 08:38:00;;;;;;;35.60;18.50;;;21.60;99.90;;;;;;5126274;28;20540;-94
2022/06/01 08:40:30;;;;;;;31.70;19.57;;;21.60;99.90;;;;;;5108545;28;20479;-95
2022/06/01 08:43:07;;;;;;;27.37;15.57;;;21.70;99.90;;;;;;5105026;28;20517;-94
2022/06/01 08:45:34;;;;;;;28.93;17.23;;;21.80;99.90;;;;;;5127065;28;20435;-94
2022/06/01 08:48:01;;;;;;;29.80;17.30;;;21.90;99.90;;;;;;5130415;28;20450;-92
2022/06/01 08:50:30;;;;;;;26.20;17.10;;;21.90;99.90;;;;;;5125860;28;20428;-93
2022/06/01 08:53:00;;;;;;;30.47;17.97;;;22.00;99.90;;;;;;5111185;28;20981;-94
2022/06/01 08:55:30;;;;;;;31.23;17.53;;;22.10;99.90;;;;;;5116469;28;20462;-94
2022/06/01 08:58:07;;;;;;;30.03;17.10;;;22.10;99.90;;;;;;5135145;27;20968;-95
2022/06/01 09:00:37;;;;;;;25.80;16.03;;;22.10;99.90;;;;;;5132584;27;20426;-92
2022/06/01 09:03:27;;;;;;;24.80;16.97;;;22.20;99.90;;;;;;5140189;27;20453;-92
2022/06/01 09:06:15;;;;;;;29.90;17.70;;;22.30;99.90;;;;;;5140117;27;20421;-91
2022/06/01 09:08:50;;;;;;;22.40;15.80;;;22.30;99.90;;;;;;5105281;27;20434;-92
2022/06/01 09:11:24;;;;;;;22.23;15.40;;;22.40;99.90;;;;;;5108507;28;20471;-95
2022/06/01 09:13:59;;;;;;;26.67;16.53;;;22.50;99.90;;;;;;5116374;27;20440;-92
2022/06/01 09:16:48;;;;;;;24.27;18.10;;;22.60;99.90;;;;;;5134896;27;20438;-94
2022/06/01 09:19:30;;;;;;;24.57;15.70;;;22.80;99.90;;;;;;5103229;27;20492;-92
2022/06/01 09:24:48;;;;;;;20.07;13.97;;;22.90;99.90;;;;;;5028431;28;20525;-94
2022/06/01 09:27:15;;;;;;;21.00;13.60;;;22.90;99.90;;;;;;5086949;27;20795;-94
2022/06/01 09:29:50;;;;;;;17.70;12.43;;;23.00;99.90;;;;;;5103709;28;20425;-92
2022/06/01 09:32:24;;;;;;;13.90;11.67;;;23.00;99.90;;;;;;5059989;28;20477;-94
2022/06/01 09:34:51;;;;;;;18.10;13.57;;;23.00;99.90;;;;;;5087523;28;20480;-93
2022/06/01 09:37:23;;;;;;;19.60;13.37;;;23.10;99.90;;;;;;5024666;28;20546;-94
2022/06/01 09:40:04;;;;;;;19.30;14.57;;;23.10;99.90;;;;;;5065957;28;20434;-93
2022/06/01 09:42:37;;;;;;;22.27;14.67;;;23.20;99.90;;;;;;5022416;28;20447;-94
2022/06/01 09:45:14;;;;;;;20.13;15.17;;;23.20;99.90;;;;;;5029507;28;20436;-94
2022/06/01 09:47:47;;;;;;;22.83;16.10;;;23.20;99.90;;;;;;5078740;28;20439;-95
2022/06/01 09:50:32;;;;;;;21.03;14.50;;;23.30;99.90;;;;;;5073973;28;20415;-93
2022/06/01 09:53:12;;;;;;;19.20;14.10;;;23.40;99.90;;;;;;5030848;28;20449;-93
2022/06/01 09:55:58;;;;;;;21.97;14.50;;;23.50;99.90;;;;;;5080695;28;20468;-94
2022/06/01 10:07:20;;;;;;;22.13;13.40;;;23.70;99.90;;;;;;5031407;28;20558;-94
2022/06/01 10:09:51;;;;;;;18.93;13.47;;;23.70;99.90;;;;;;5090829;28;20544;-93
2022/06/01 10:12:41;;;;;;;19.37;13.03;;;23.70;99.90;;;;;;5114364;28;20452;-93
2022/06/01 10:15:33;;;;;;;19.00;13.30;;;23.60;99.90;;;;;;5039301;28;21034;-93
2022/06/01 10:18:05;;;;;;;18.90;14.07;;;23.70;99.90;;;;;;5102464;28;20506;-91
2022/06/01 10:20:55;;;;;;;15.40;12.00;;;23.70;99.90;;;;;;5094384;28;20427;-92
2022/06/01 10:23:30;;;;;;;17.47;13.07;;;23.70;99.90;;;;;;5091773;28;20507;-95
2022/06/01 10:26:02;;;;;;;17.70;12.20;;;23.80;99.90;;;;;;5094013;28;20440;-92
2022/06/01 10:28:36;;;;;;;17.83;12.07;;;23.80;99.90;;;;;;5080561;28;20461;-92
2022/06/01 10:31:04;;;;;;;17.60;11.60;;;23.90;99.90;;;;;;5074901;28;20491;-91
2022/06/01 10:34:04;;;;;;;16.40;11.97;;;24.00;99.90;;;;;;5079726;28;21751;-91
2022/06/01 10:36:52;;;;;;;17.60;11.70;;;24.00;99.90;;;;;;5113431;28;20827;-92
2022/06/01 10:39:38;;;;;;;17.17;10.97;;;24.00;99.90;;;;;;5110850;28;20433;-95
2022/06/01 10:42:17;;;;;;;13.30;10.70;;;24.10;99.90;;;;;;5085517;28;20460;-94
2022/06/01 10:44:43;;;;;;;14.77;10.30;;;24.10;99.90;;;;;;5093798;28;20433;-94
2022/06/01 10:47:20;;;;;;;15.73;9.60;;;24.10;99.90;;;;;;5096667;28;20487;-94
2022/06/01 10:49:51;;;;;;;15.13;10.43;;;24.10;99.90;;;;;;5104278;28;20507;-94
2022/06/01 10:52:37;;;;;;;14.90;10.53;;;24.10;99.90;;;;;;5109316;28;20461;-91
2022/06/01 10:55:20;;;;;;;13.60;10.77;;;24.10;99.90;;;;;;5100540;28;20589;-91
2022/06/01 10:57:47;;;;;;;16.40;12.80;;;24.20;99.90;;;;;;5077379;28;20456;-91
2022/06/01 11:00:49;;;;;;;15.83;11.20;;;24.20;99.90;;;;;;5080991;28;20438;-93
2022/06/01 11:03:22;;;;;;;12.40;9.77;;;24.20;99.90;;;;;;5079349;28;20464;-90
2022/06/01 11:06:00;;;;;;;16.63;11.10;;;24.30;99.90;;;;;;5096298;28;20478;-90
2022/06/01 11:09:01;;;;;;;13.97;9.50;;;24.40;99.90;;;;;;5080653;28;20517;-90
2022/06/01 11:11:47;;;;;;;13.73;10.37;;;24.40;99.90;;;;;;5058419;28;20444;-93
2022/06/01 11:14:57;;;;;;;13.90;9.10;;;24.50;99.90;;;;;;5103100;28;20492;-92
2022/06/01 11:17:26;;;;;;;13.40;9.63;;;24.50;99.90;;;;;;5104867;27;20451;-92
2022/06/01 11:20:12;;;;;;;16.57;9.20;;;24.60;99.90;;;;;;5109238;27;20421;-93
2022/06/01 11:22:59;;;;;;;13.67;9.00;;;24.60;99.90;;;;;;5121663;27;20453;-92
2022/06/01 11:26:06;;;;;;;14.03;9.73;;;24.70;99.90;;;;;;5123766;27;20450;-90
2022/06/01 11:29:14;;;;;;;11.40;7.83;;;24.60;99.90;;;;;;5102511;27;20494;-93
2022/06/01 11:31:56;;;;;;;10.50;8.30;;;24.70;99.90;;;;;;5104512;27;20513;-92
2022/06/01 11:34:41;;;;;;;11.13;7.77;;;24.60;99.90;;;;;;5109943;27;20529;-90
2022/06/01 11:37:33;;;;;;;11.03;8.23;;;24.60;99.90;;;;;;5113178;27;20478;-92
2022/06/01 11:40:12;;;;;;;11.17;8.67;;;24.60;99.90;;;;;;5106582;27;20484;-92
2022/06/01 11:42:41;;;;;;;12.10;8.63;;;24.60;99.90;;;;;;5125137;27;20457;-93
2022/06/01 11:45:35;;;;;;;12.13;8.93;;;24.60;99.90;;;;;;5112972;27;21915;-93
2022/06/01 11:48:10;;;;;;;12.20;8.90;;;24.60;99.90;;;;;;5125417;27;20453;-93
2022/06/01 11:50:50;;;;;;;10.87;8.90;;;24.70;99.90;;;;;;5124289;27;20402;-90
2022/06/01 11:53:44;;;;;;;9.47;7.03;;;24.70;99.90;;;;;;5110269;27;20453;-91
2022/06/01 11:56:13;;;;;;;12.20;8.63;;;24.70;99.90;;;;;;5115779;27;20446;-94
2022/06/01 11:58:54;;;;;;;10.10;7.57;;;24.80;99.90;;;;;;5118408;28;20497;-93
2022/06/01 12:01:46;;;;;;;9.87;7.90;;;24.80;99.90;;;;;;5116819;27;20438;-92
2022/06/01 12:04:33;;;;;;;11.53;8.57;;;24.80;99.90;;;;;;5103823;28;20439;-91
2022/06/01 12:07:01;;;;;;;9.40;7.00;;;24.90;99.90;;;;;;5103612;28;20486;-91
2022/06/01 12:09:48;;;;;;;11.00;8.07;;;24.90;99.90;;;;;;5103950;28;20446;-93
2022/06/01 12:12:37;;;;;;;13.73;8.30;;;24.90;99.90;;;;;;5099604;28;20514;-92
2022/06/01 12:15:44;;;;;;;9.60;7.23;;;24.90;99.90;;;;;;5102565;28;20470;-91
2022/06/01 12:18:16;;;;;;;9.50;7.50;;;25.00;99.90;;;;;;5068298;28;21070;-90
2022/06/01 12:20:46;;;;;;;9.57;7.00;;;25.00;99.90;;;;;;5088118;28;20447;-93
2022/06/01 12:28:57;;;;;;;12.30;8.20;;;25.00;99.90;;;;;;5008033;28;20450;-93
2022/06/01 12:31:32;;;;;;;9.17;7.13;;;25.00;99.90;;;;;;5083423;28;21314;-91
2022/06/01 12:34:01;;;;;;;9.20;6.50;;;25.10;99.90;;;;;;5028534;28;20864;-93
2022/06/01 12:36:36;;;;;;;9.37;7.13;;;25.10;99.90;;;;;;5093286;28;20451;-91
2022/06/01 12:39:07;;;;;;;9.50;6.83;;;25.10;99.90;;;;;;5084901;28;20431;-90
2022/06/01 12:41:36;;;;;;;8.70;7.20;;;25.20;99.90;;;;;;5090898;28;20468;-93
2022/06/01 12:44:07;;;;;;;11.10;7.87;;;25.20;99.90;;;;;;5107898;27;20439;-91
2022/06/01 12:46:43;;;;;;;9.63;6.40;;;25.20;99.90;;;;;;5070965;27;20820;-90
2022/06/01 12:49:33;;;;;;;10.67;7.30;;;25.30;99.90;;;;;;5090549;28;20444;-93
2022/06/01 12:52:11;;;;;;;8.33;6.60;;;25.30;99.90;;;;;;5096881;28;20987;-93
2022/06/01 12:54:59;;;;;;;8.67;6.70;;;25.30;99.90;;;;;;5082902;28;20470;-93
2022/06/01 12:57:34;;;;;;;8.30;6.00;;;25.40;99.90;;;;;;5057164;28;20454;-93
2022/06/01 13:00:08;;;;;;;9.90;5.60;;;25.40;99.90;;;;;;5097396;28;20437;-93
2022/06/01 13:02:36;;;;;;;8.30;5.60;;;25.40;99.90;;;;;;5080317;28;20546;-91
2022/06/01 13:05:04;;;;;;;8.07;5.43;;;25.40;99.90;;;;;;5089354;28;20424;-90
2022/06/01 13:07:34;;;;;;;6.10;5.40;;;25.40;99.90;;;;;;5086844;28;20477;-91
2022/06/01 13:10:22;;;;;;;8.40;6.20;;;25.40;99.90;;;;;;5028025;28;20431;-93
2022/06/01 13:12:47;;;;;;;9.63;5.90;;;25.50;99.90;;;;;;5094875;28;20451;-94
2022/06/01 13:15:23;;;;;;;8.60;5.70;;;25.50;99.90;;;;;;5025201;28;21017;-92
2022/06/01 13:17:58;;;;;;;6.67;5.60;;;25.50;99.90;;;;;;5011822;27;20336;-93
2022/06/01 13:20:40;;;;;;;8.90;5.30;;;25.60;99.90;;;;;;5110708;27;20462;-91
2022/06/01 13:23:18;;;;;;;5.70;4.83;;;25.60;99.90;;;;;;5125811;27;20475;-93
2022/06/01 13:25:45;;;;;;;5.73;4.70;;;25.60;99.90;;;;;;5109348;27;20425;-93